| time (UTC) | temp F | wind direction | speed MPH | gust MPH | rain 1hr in | rain 24hr in | rain mn in | humidity % | barometer mb |
| 20260510080939 | 53 | 45 | 6.0 | 9.0 | 0.00 | 0.06 | 0.00 | 51 | 992.2 |
| 20260510080419 | 53 | 45 | 6.0 | 7.0 | 0.00 | 0.06 | 0.00 | 52 | 992.2 |
| 20260510075918 | 53 | 45 | 7.0 | 9.0 | 0.00 | 0.06 | 0.00 | 52 | 991.9 |
| 20260510075418 | 53 | 45 | 8.0 | 9.0 | 0.00 | 0.06 | 0.00 | 52 | 991.9 |
| 20260510074918 | 53 | 45 | 7.0 | 9.0 | 0.00 | 0.06 | 0.00 | 52 | 991.9 |
| 20260510074418 | 53 | 45 | 5.0 | 7.0 | 0.00 | 0.06 | 0.00 | 53 | 991.9 |
| 20260510073918 | 53 | 23 | 4.0 | 6.0 | 0.00 | 0.06 | 0.00 | 52 | 991.7 |
| 20260510073418 | 53 | 45 | 10.0 | 12.0 | 0.00 | 0.06 | 0.00 | 52 | 991.5 |
| 20260510072918 | 54 | 45 | 10.0 | 12.0 | 0.00 | 0.06 | 0.00 | 53 | 991.5 |
| 20260510072438 | 54 | 45 | 10.0 | 13.0 | 0.00 | 0.06 | 0.00 | 53 | 991.4 |
| 20260510071959 | 54 | 45 | 11.0 | 13.0 | 0.00 | 0.06 | 0.00 | 53 | 991.3 |
| 20260510071439 | 54 | 45 | 11.0 | 13.0 | 0.00 | 0.06 | 0.00 | 53 | 991.2 |
| 20260510070918 | 54 | 45 | 8.0 | 10.0 | 0.00 | 0.06 | 0.00 | 54 | 991.1 |
| 20260510070418 | 54 | 45 | 10.0 | 13.0 | 0.00 | 0.06 | 0.00 | 54 | 991.1 |
| 20260510065918 | 54 | 45 | 12.0 | 14.0 | 0.00 | 0.06 | 0.00 | 54 | 991.0 |
| 20260510065418 | 54 | 45 | 11.0 | 13.0 | 0.00 | 0.06 | 0.00 | 54 | 991.0 |
| 20260510064918 | 54 | 45 | 11.0 | 14.0 | 0.00 | 0.06 | 0.00 | 53 | 990.9 |
| 20260510064418 | 54 | 45 | 14.0 | 16.0 | 0.00 | 0.06 | 0.00 | 55 | 990.8 |
| 20260510063918 | 54 | 45 | 15.0 | 17.0 | 0.00 | 0.06 | 0.00 | 54 | 990.7 |
| 20260510063418 | 54 | 45 | 13.0 | 16.0 | 0.00 | 0.06 | 0.00 | 53 | 990.9 |
| 20260510062937 | 54 | 45 | 15.0 | 17.0 | 0.00 | 0.06 | 0.00 | 53 | 990.8 |
| 20260510062419 | 54 | 45 | 16.0 | 17.0 | 0.00 | 0.06 | 0.00 | 53 | 990.7 |
| 20260510061918 | 54 | 45 | 16.0 | 17.0 | 0.00 | 0.06 | 0.00 | 54 | 990.7 |
| 20260510061418 | 54 | 45 | 17.0 | 20.0 | 0.00 | 0.06 | 0.00 | 54 | 990.6 |
| 20260510060918 | 54 | 45 | 18.0 | 20.0 | 0.00 | 0.06 | 0.00 | 53 | 990.5 |
| 20260510060418 | 54 | 45 | 20.0 | 23.0 | 0.00 | 0.06 | 0.00 | 54 | 990.6 |
| 20260510055939 | 54 | 45 | 19.0 | 23.0 | 0.00 | 0.06 | 0.00 | 54 | 990.6 |
| 20260510055420 | 54 | 45 | 19.0 | 21.0 | 0.00 | 0.06 | 0.00 | 54 | 990.6 |
| 20260510054922 | 55 | 45 | 16.0 | 22.0 | 0.00 | 0.06 | 0.00 | 55 | 990.4 |
| 20260510054438 | 55 | 45 | 17.0 | 20.0 | 0.00 | 0.06 | 0.00 | 55 | 990.4 |
| 20260510053919 | 55 | 45 | 13.0 | 16.0 | 0.00 | 0.06 | 0.00 | 55 | 990.2 |
| 20260510053421 | 55 | 45 | 12.0 | 15.0 | 0.00 | 0.06 | 0.00 | 54 | 990.2 |
| 20260510052918 | 55 | 45 | 13.0 | 16.0 | 0.00 | 0.06 | 0.00 | 54 | 990.0 |
| 20260510052420 | 55 | 23 | 16.0 | 19.0 | 0.00 | 0.06 | 0.00 | 54 | 989.9 |
| 20260510051920 | 56 | 23 | 16.0 | 23.0 | 0.00 | 0.06 | 0.00 | 54 | 989.7 |
| 20260510051422 | 56 | 45 | 15.0 | 23.0 | 0.00 | 0.06 | 0.00 | 53 | 989.6 |
| 20260510050942 | 56 | 23 | 16.0 | 25.0 | 0.00 | 0.06 | 0.00 | 54 | 989.6 |
| 20260510050421 | 57 | 23 | 20.0 | 25.0 | 0.00 | 0.06 | 0.00 | 53 | 989.5 |
| 20260510045921 | 58 | 23 | 20.0 | 25.0 | 0.00 | 0.06 | 0.00 | 54 | 989.2 |
| 20260510045418 | 59 | 23 | 25.0 | 29.0 | 0.01 | 0.06 | 0.00 | 53 | 989.2 |
| 20260510044918 | 60 | 0 | 19.0 | 26.0 | 0.01 | 0.06 | 0.00 | 52 | 988.8 |
| 20260510044418 | 61 | 338 | 4.0 | 7.0 | 0.03 | 0.06 | 0.00 | 51 | 988.7 |
| 20260510043920 | 61 | 270 | 10.0 | 14.0 | 0.03 | 0.06 | 0.00 | 52 | 988.6 |
| 20260510043419 | 62 | 270 | 12.0 | 15.0 | 0.03 | 0.06 | 0.00 | 53 | 988.4 |
| 20260510042920 | 62 | 270 | 12.0 | 15.0 | 0.03 | 0.06 | 0.00 | 54 | 988.1 |
| 20260510042418 | 62 | 270 | 9.0 | 11.0 | 0.03 | 0.06 | 0.00 | 54 | 988.0 |
| 20260510041940 | 63 | 270 | 11.0 | 14.0 | 0.03 | 0.06 | 0.00 | 53 | 988.0 |
| 20260510041440 | 63 | 248 | 10.0 | 12.0 | 0.03 | 0.06 | 0.00 | 52 | 987.9 |
| 20260510040917 | 63 | 270 | 18.0 | 25.0 | 0.03 | 0.06 | 0.00 | 51 | 987.7 |
| 20260510040419 | 62 | 225 | 8.0 | 10.0 | 0.03 | 0.06 | 0.00 | 49 | 987.1 |
| 20260510035920 | 62 | 225 | 16.0 | 20.0 | 0.03 | 0.06 | 0.06 | 50 | 986.9 |
| 20260510035420 | 62 | 225 | 18.0 | 21.0 | 0.02 | 0.05 | 0.05 | 51 | 986.9 |
| 20260510034920 | 63 | 225 | 20.0 | 26.0 | 0.02 | 0.05 | 0.05 | 47 | 987.3 |
| 20260510034418 | 61 | 248 | 16.0 | 20.0 | 0.00 | 0.03 | 0.03 | 49 | 987.1 |
| 20260510033918 | 61 | 225 | 10.0 | 15.0 | 0.00 | 0.03 | 0.03 | 53 | 987.4 |
| 20260510033419 | 61 | 225 | 11.0 | 14.0 | 0.00 | 0.03 | 0.03 | 53 | 987.1 |
| 20260510032920 | 61 | 225 | 10.0 | 12.0 | 0.00 | 0.03 | 0.03 | 53 | 987.0 |
| 20260510032418 | 60 | 225 | 11.0 | 12.0 | 0.00 | 0.03 | 0.03 | 53 | 986.8 |
| 20260510031918 | 60 | 225 | 9.0 | 11.0 | 0.00 | 0.03 | 0.03 | 53 | 986.8 |
| 20260510031418 | 60 | 225 | 9.0 | 12.0 | 0.00 | 0.03 | 0.03 | 53 | 986.9 |
| 20260510030919 | 60 | 203 | 9.0 | 12.0 | 0.00 | 0.03 | 0.03 | 53 | 986.8 |
| 20260510030418 | 60 | 225 | 9.0 | 11.0 | 0.00 | 0.03 | 0.03 | 53 | 986.8 |
| 20260510025938 | 61 | 225 | 8.0 | 10.0 | 0.00 | 0.03 | 0.03 | 53 | 986.8 |
| 20260510025418 | 61 | 225 | 9.0 | 11.0 | 0.00 | 0.03 | 0.03 | 52 | 986.7 |
| 20260510024941 | 61 | 225 | 9.0 | 10.0 | 0.00 | 0.03 | 0.03 | 52 | 986.7 |
| 20260510024420 | 61 | 203 | 5.0 | 8.0 | 0.00 | 0.03 | 0.03 | 51 | 986.7 |
| 20260510023920 | 61 | 203 | 8.0 | 12.0 | 0.00 | 0.03 | 0.03 | 51 | 986.6 |
| 20260510023438 | 61 | 203 | 10.0 | 12.0 | 0.00 | 0.03 | 0.03 | 51 | 986.6 |
| 20260510022920 | 61 | 225 | 12.0 | 14.0 | 0.00 | 0.03 | 0.03 | 52 | 986.6 |
| 20260510022421 | 61 | 225 | 12.0 | 14.0 | 0.00 | 0.03 | 0.03 | 52 | 986.7 |
| 20260510021958 | 61 | 225 | 7.0 | 9.0 | 0.00 | 0.03 | 0.03 | 52 | 986.5 |
| 20260510021418 | 61 | 225 | 8.0 | 9.0 | 0.00 | 0.03 | 0.03 | 52 | 986.5 |
| 20260510020920 | 61 | 225 | 8.0 | 9.0 | 0.00 | 0.03 | 0.03 | 52 | 986.6 |
| 20260510020420 | 62 | 225 | 10.0 | 13.0 | 0.00 | 0.03 | 0.03 | 52 | 986.6 |
| 20260510015921 | 62 | 248 | 9.0 | 11.0 | 0.00 | 0.03 | 0.03 | 52 | 986.6 |
| 20260510015420 | 61 | 225 | 9.0 | 11.0 | 0.00 | 0.03 | 0.03 | 52 | 986.6 |
| 20260510014917 | 61 | 225 | 11.0 | 12.0 | 0.00 | 0.03 | 0.03 | 52 | 986.6 |
| 20260510014421 | 61 | 225 | 14.0 | 17.0 | 0.00 | 0.03 | 0.03 | 53 | 986.6 |
| 20260510013917 | 61 | 225 | 11.0 | 14.0 | 0.00 | 0.03 | 0.03 | 53 | 986.5 |
| 20260510013420 | 61 | 225 | 11.0 | 12.0 | 0.00 | 0.03 | 0.03 | 54 | 986.5 |
| 20260510012920 | 61 | 225 | 10.0 | 12.0 | 0.00 | 0.03 | 0.03 | 54 | 986.2 |
| 20260510012420 | 61 | 225 | 7.0 | 9.0 | 0.00 | 0.03 | 0.03 | 54 | 986.0 |
| 20260510011918 | 61 | 225 | 8.0 | 9.0 | 0.00 | 0.03 | 0.03 | 54 | 986.0 |
| 20260510011438 | 61 | 203 | 7.0 | 8.0 | 0.00 | 0.03 | 0.03 | 53 | 986.0 |
| 20260510010918 | 61 | 203 | 8.0 | 9.0 | 0.00 | 0.03 | 0.03 | 53 | 985.9 |
| 20260510010440 | 61 | 203 | 4.0 | 6.0 | 0.00 | 0.03 | 0.03 | 53 | 985.9 |
| 20260510005920 | 61 | 203 | 6.0 | 8.0 | 0.00 | 0.03 | 0.03 | 53 | 985.9 |
| 20260510005417 | 61 | 203 | 7.0 | 8.0 | 0.00 | 0.03 | 0.03 | 53 | 985.8 |
| 20260510004918 | 61 | 225 | 8.0 | 10.0 | 0.00 | 0.03 | 0.03 | 52 | 985.8 |
| 20260510004417 | 61 | 225 | 9.0 | 10.0 | 0.00 | 0.03 | 0.03 | 52 | 985.8 |
| 20260510003920 | 62 | 225 | 10.0 | 12.0 | 0.00 | 0.03 | 0.03 | 52 | 985.8 |
| 20260510003417 | 62 | 225 | 10.0 | 12.0 | 0.00 | 0.03 | 0.03 | 52 | 985.8 |
| 20260510002917 | 62 | 225 | 8.0 | 10.0 | 0.00 | 0.03 | 0.03 | 51 | 985.8 |
| 20260510002417 | 62 | 225 | 10.0 | 12.0 | 0.00 | 0.03 | 0.03 | 51 | 985.8 |
| 20260510001920 | 63 | 225 | 8.0 | 10.0 | 0.00 | 0.03 | 0.03 | 50 | 985.8 |
| 20260510001440 | 63 | 225 | 9.0 | 11.0 | 0.00 | 0.03 | 0.03 | 50 | 985.8 |
| 20260510000920 | 63 | 225 | 9.0 | 12.0 | 0.00 | 0.03 | 0.03 | 49 | 985.7 |
| 20260510000420 | 63 | 225 | 7.0 | 10.0 | 0.00 | 0.03 | 0.03 | 49 | 985.7 |
| 20260509235917 | 63 | 225 | 8.0 | 11.0 | 0.00 | 0.03 | 0.03 | 49 | 985.7 |
| 20260509235419 | 63 | 225 | 12.0 | 14.0 | 0.00 | 0.03 | 0.03 | 49 | 985.8 |
| 20260509235000 | 63 | 225 | 11.0 | 12.0 | 0.00 | 0.03 | 0.03 | 48 | 985.8 |
| 20260509234420 | 63 | 225 | 8.0 | 11.0 | 0.00 | 0.03 | 0.03 | 49 | 985.7 |
| 20260509233917 | 63 | 225 | 10.0 | 12.0 | 0.00 | 0.03 | 0.03 | 49 | 985.7 |
| 20260509233417 | 63 | 248 | 6.0 | 8.0 | 0.00 | 0.03 | 0.03 | 50 | 985.8 |
| 20260509232917 | 63 | 248 | 6.0 | 8.0 | 0.00 | 0.03 | 0.03 | 50 | 985.6 |
| 20260509232419 | 62 | 225 | 6.0 | 8.0 | 0.00 | 0.03 | 0.03 | 50 | 985.6 |
| 20260509231919 | 62 | 225 | 7.0 | 9.0 | 0.01 | 0.03 | 0.03 | 51 | 985.6 |
| 20260509231417 | 62 | 248 | 9.0 | 11.0 | 0.01 | 0.03 | 0.03 | 51 | 985.6 |
| 20260509230938 | 62 | 225 | 8.0 | 11.0 | 0.01 | 0.03 | 0.03 | 51 | 985.6 |
| 20260509230419 | 61 | 225 | 9.0 | 12.0 | 0.01 | 0.03 | 0.03 | 52 | 985.5 |
| 20260509225938 | 61 | 225 | 9.0 | 11.0 | 0.02 | 0.03 | 0.03 | 54 | 985.4 |
| 20260509225418 | 60 | 225 | 13.0 | 14.0 | 0.03 | 0.03 | 0.03 | 54 | 985.6 |
| 20260509224918 | 60 | 225 | 13.0 | 16.0 | 0.03 | 0.03 | 0.03 | 54 | 985.6 |
| 20260509224419 | 60 | 225 | 12.0 | 15.0 | 0.03 | 0.03 | 0.03 | 55 | 985.6 |
| 20260509223918 | 60 | 225 | 11.0 | 14.0 | 0.03 | 0.03 | 0.03 | 55 | 985.5 |
| 20260509223417 | 60 | 225 | 13.0 | 18.0 | 0.03 | 0.03 | 0.03 | 55 | 985.4 |
| 20260509222937 | 60 | 248 | 9.0 | 10.0 | 0.03 | 0.03 | 0.03 | 55 | 985.7 |
| 20260509222418 | 61 | 225 | 12.0 | 17.0 | 0.03 | 0.03 | 0.03 | 53 | 985.3 |
| 20260509221917 | 61 | 248 | 14.0 | 16.0 | 0.02 | 0.02 | 0.02 | 54 | 985.5 |
| 20260509221417 | 61 | 248 | 14.0 | 16.0 | 0.02 | 0.02 | 0.02 | 55 | 985.1 |
| 20260509220917 | 62 | 248 | 16.0 | 17.0 | 0.02 | 0.03 | 0.02 | 55 | 985.2 |
| 20260509220438 | 63 | 270 | 21.0 | 27.0 | 0.02 | 0.03 | 0.02 | 53 | 985.4 |
| 20260509215917 | 66 | 270 | 14.0 | 19.0 | 0.01 | 0.02 | 0.01 | 49 | 985.4 |
| 20260509215417 | 70 | 270 | 14.0 | 20.0 | 0.00 | 0.01 | 0.00 | 42 | 985.0 |
| 20260509214918 | 70 | 248 | 11.0 | 15.0 | 0.00 | 0.01 | 0.00 | 39 | 983.8 |
| 20260509214417 | 70 | 225 | 12.0 | 17.0 | 0.00 | 0.01 | 0.00 | 40 | 983.3 |
| 20260509213919 | 70 | 225 | 18.0 | 23.0 | 0.00 | 0.01 | 0.00 | 40 | 983.0 |
| 20260509213417 | 70 | 248 | 14.0 | 17.0 | 0.00 | 0.01 | 0.00 | 42 | 983.1 |
| 20260509212917 | 70 | 225 | 19.0 | 22.0 | 0.00 | 0.01 | 0.00 | 40 | 982.8 |
| 20260509212438 | 70 | 225 | 17.0 | 21.0 | 0.00 | 0.01 | 0.00 | 41 | 983.0 |
| 20260509211937 | 70 | 225 | 20.0 | 27.0 | 0.00 | 0.01 | 0.00 | 42 | 982.9 |
| 20260509211418 | 70 | 225 | 26.0 | 32.0 | 0.00 | 0.01 | 0.00 | 41 | 982.9 |
| 20260509210917 | 70 | 225 | 21.0 | 30.0 | 0.00 | 0.01 | 0.00 | 41 | 982.9 |
| 20260509210418 | 70 | 225 | 19.0 | 29.0 | 0.00 | 0.01 | 0.00 | 41 | 982.8 |
| 20260509205917 | 71 | 225 | 18.0 | 27.0 | 0.00 | 0.01 | 0.00 | 42 | 982.8 |
| 20260509205437 | 71 | 203 | 20.0 | 29.0 | 0.00 | 0.01 | 0.00 | 41 | 982.8 |
| 20260509204917 | 71 | 225 | 21.0 | 28.0 | 0.00 | 0.01 | 0.00 | 43 | 983.0 |
| 20260509204417 | 70 | 225 | 21.0 | 29.0 | 0.00 | 0.01 | 0.00 | 42 | 983.0 |
| 20260509203917 | 70 | 203 | 20.0 | 26.0 | 0.00 | 0.01 | 0.00 | 43 | 983.1 |
| 20260509203419 | 70 | 225 | 20.0 | 32.0 | 0.00 | 0.01 | 0.00 | 42 | 983.2 |
| 20260509202917 | 70 | 225 | 20.0 | 29.0 | 0.00 | 0.01 | 0.00 | 42 | 983.5 |
| 20260509202500 | 70 | 225 | 19.0 | 24.0 | 0.00 | 0.01 | 0.00 | 42 | 983.5 |
| 20260509201917 | 70 | 225 | 24.0 | 27.0 | 0.00 | 0.01 | 0.00 | 43 | 983.6 |
| 20260509201417 | 70 | 225 | 26.0 | 32.0 | 0.00 | 0.01 | 0.00 | 43 | 983.6 |
| 20260509200917 | 70 | 225 | 19.0 | 23.0 | 0.00 | 0.01 | 0.00 | 45 | 983.8 |
| 20260509200418 | 70 | 225 | 24.0 | 31.0 | 0.00 | 0.01 | 0.00 | 43 | 983.7 |
| 20260509195917 | 70 | 203 | 23.0 | 30.0 | 0.00 | 0.01 | 0.00 | 44 | 983.9 |
| 20260509195417 | 70 | 225 | 17.0 | 27.0 | 0.00 | 0.01 | 0.00 | 44 | 983.9 |
| 20260509194917 | 70 | 225 | 22.0 | 28.0 | 0.00 | 0.01 | 0.00 | 44 | 984.0 |
| 20260509194417 | 70 | 225 | 23.0 | 30.0 | 0.00 | 0.01 | 0.00 | 44 | 984.0 |
| 20260509193917 | 70 | 225 | 23.0 | 30.0 | 0.00 | 0.01 | 0.00 | 45 | 984.4 |
| 20260509193418 | 69 | 225 | 23.0 | 27.0 | 0.00 | 0.01 | 0.00 | 44 | 984.3 |
| 20260509192957 | 69 | 203 | 18.0 | 36.0 | 0.00 | 0.01 | 0.00 | 45 | 984.4 |
| 20260509192417 | 69 | 225 | 22.0 | 30.0 | 0.00 | 0.01 | 0.00 | 45 | 984.4 |
| 20260509191917 | 69 | 225 | 20.0 | 32.0 | 0.00 | 0.01 | 0.00 | 45 | 984.5 |
| 20260509191417 | 68 | 225 | 20.0 | 26.0 | 0.00 | 0.01 | 0.00 | 47 | 984.6 |
| 20260509190917 | 68 | 225 | 19.0 | 23.0 | 0.00 | 0.01 | 0.00 | 46 | 984.7 |
| 20260509190417 | 68 | 225 | 22.0 | 27.0 | 0.00 | 0.01 | 0.00 | 46 | 984.8 |
| 20260509185938 | 68 | 225 | 24.0 | 31.0 | 0.00 | 0.01 | 0.00 | 46 | 984.7 |
| 20260509185416 | 68 | 225 | 14.0 | 20.0 | 0.00 | 0.01 | 0.00 | 46 | 984.7 |
| 20260509184917 | 68 | 225 | 18.0 | 23.0 | 0.00 | 0.01 | 0.00 | 46 | 984.7 |
| 20260509184417 | 68 | 225 | 21.0 | 28.0 | 0.00 | 0.01 | 0.00 | 45 | 984.7 |
| 20260509183917 | 68 | 203 | 23.0 | 27.0 | 0.00 | 0.01 | 0.00 | 45 | 984.6 |
| 20260509183417 | 68 | 225 | 13.0 | 19.0 | 0.00 | 0.01 | 0.00 | 46 | 984.8 |
| 20260509182917 | 68 | 203 | 13.0 | 25.0 | 0.00 | 0.01 | 0.00 | 46 | 984.9 |
| 20260509182417 | 68 | 225 | 12.0 | 16.0 | 0.00 | 0.01 | 0.00 | 48 | 985.0 |
| 20260509181937 | 67 | 180 | 13.0 | 21.0 | 0.00 | 0.01 | 0.00 | 47 | 985.0 |
| 20260509181437 | 67 | 225 | 19.0 | 24.0 | 0.00 | 0.01 | 0.00 | 47 | 985.1 |
| 20260509180917 | 67 | 203 | 25.0 | 32.0 | 0.00 | 0.01 | 0.00 | 45 | 985.1 |
| 20260509180417 | 67 | 225 | 19.0 | 23.0 | 0.00 | 0.01 | 0.00 | 46 | 985.1 |
| 20260509175917 | 67 | 203 | 15.0 | 28.0 | 0.00 | 0.01 | 0.00 | 47 | 985.2 |
| 20260509175417 | 67 | 225 | 16.0 | 21.0 | 0.00 | 0.01 | 0.00 | 47 | 985.3 |
| 20260509174917 | 67 | 225 | 15.0 | 21.0 | 0.00 | 0.01 | 0.00 | 47 | 985.2 |
| 20260509174417 | 67 | 225 | 21.0 | 28.0 | 0.00 | 0.01 | 0.00 | 46 | 985.2 |
| 20260509173917 | 67 | 248 | 15.0 | 18.0 | 0.00 | 0.01 | 0.00 | 46 | 985.3 |
| 20260509173417 | 66 | 225 | 16.0 | 22.0 | 0.00 | 0.01 | 0.00 | 47 | 985.3 |
| 20260509172957 | 66 | 225 | 15.0 | 20.0 | 0.00 | 0.01 | 0.00 | 47 | 985.3 |
| 20260509172436 | 66 | 225 | 21.0 | 26.0 | 0.00 | 0.01 | 0.00 | 48 | 985.3 |
| 20260509171916 | 66 | 203 | 11.0 | 16.0 | 0.00 | 0.01 | 0.00 | 48 | 985.4 |
| 20260509171417 | 66 | 180 | 9.0 | 16.0 | 0.00 | 0.01 | 0.00 | 47 | 985.4 |
| 20260509170917 | 66 | 225 | 16.0 | 20.0 | 0.00 | 0.01 | 0.00 | 48 | 985.5 |
| 20260509170416 | 66 | 225 | 17.0 | 21.0 | 0.00 | 0.01 | 0.00 | 48 | 985.5 |
| 20260509165917 | 65 | 203 | 10.0 | 15.0 | 0.00 | 0.01 | 0.00 | 48 | 985.5 |
| 20260509165417 | 65 | 203 | 16.0 | 22.0 | 0.00 | 0.01 | 0.00 | 49 | 985.5 |
| 20260509164916 | 65 | 203 | 13.0 | 23.0 | 0.00 | 0.01 | 0.00 | 48 | 985.5 |
| 20260509164417 | 65 | 225 | 16.0 | 22.0 | 0.00 | 0.01 | 0.00 | 49 | 985.6 |
| 20260509163916 | 65 | 203 | 11.0 | 18.0 | 0.00 | 0.01 | 0.00 | 48 | 985.5 |
| 20260509163417 | 65 | 225 | 5.0 | 9.0 | 0.00 | 0.01 | 0.00 | 47 | 985.7 |
| 20260509162917 | 65 | 225 | 13.0 | 15.0 | 0.00 | 0.01 | 0.00 | 48 | 985.7 |
| 20260509162416 | 64 | 225 | 11.0 | 13.0 | 0.00 | 0.01 | 0.00 | 48 | 985.8 |
| 20260509161938 | 64 | 248 | 10.0 | 14.0 | 0.00 | 0.01 | 0.00 | 48 | 985.8 |
| 20260509161416 | 64 | 225 | 11.0 | 12.0 | 0.00 | 0.01 | 0.00 | 48 | 985.9 |
| 20260509160917 | 64 | 225 | 11.0 | 13.0 | 0.00 | 0.01 | 0.00 | 48 | 985.9 |
| 20260509160417 | 64 | 225 | 16.0 | 19.0 | 0.00 | 0.01 | 0.00 | 48 | 985.9 |
| 20260509155916 | 63 | 225 | 14.0 | 17.0 | 0.00 | 0.01 | 0.00 | 48 | 985.9 |
| 20260509155416 | 63 | 225 | 16.0 | 23.0 | 0.00 | 0.01 | 0.00 | 48 | 985.9 |
| 20260509154917 | 63 | 203 | 13.0 | 18.0 | 0.00 | 0.01 | 0.00 | 48 | 986.1 |
| 20260509154437 | 62 | 225 | 12.0 | 16.0 | 0.00 | 0.01 | 0.00 | 48 | 986.0 |
| 20260509153917 | 62 | 225 | 10.0 | 15.0 | 0.00 | 0.01 | 0.00 | 48 | 986.0 |
| 20260509153417 | 62 | 203 | 17.0 | 20.0 | 0.00 | 0.01 | 0.00 | 47 | 986.0 |
| 20260509152916 | 62 | 225 | 16.0 | 20.0 | 0.00 | 0.01 | 0.00 | 47 | 986.3 |
| 20260509152416 | 62 | 248 | 9.0 | 11.0 | 0.00 | 0.01 | 0.00 | 48 | 986.3 |
| 20260509151917 | 61 | 225 | 15.0 | 20.0 | 0.00 | 0.01 | 0.00 | 47 | 986.4 |
| 20260509151417 | 61 | 225 | 13.0 | 15.0 | 0.00 | 0.01 | 0.00 | 48 | 986.4 |
| 20260509150918 | 61 | 248 | 10.0 | 13.0 | 0.00 | 0.01 | 0.00 | 47 | 986.4 |
| 20260509150417 | 61 | 225 | 11.0 | 16.0 | 0.00 | 0.01 | 0.00 | 47 | 986.5 |
| 20260509145916 | 60 | 225 | 12.0 | 17.0 | 0.00 | 0.01 | 0.00 | 47 | 986.5 |
| 20260509145439 | 60 | 225 | 11.0 | 13.0 | 0.00 | 0.01 | 0.00 | 48 | 986.5 |
| 20260509144920 | 59 | 225 | 9.0 | 12.0 | 0.00 | 0.01 | 0.00 | 48 | 986.5 |
| 20260509144416 | 59 | 248 | 6.0 | 8.0 | 0.00 | 0.01 | 0.00 | 47 | 986.5 |
| 20260509143917 | 59 | 248 | 6.0 | 8.0 | 0.00 | 0.01 | 0.00 | 47 | 986.6 |
| 20260509143418 | 59 | 248 | 11.0 | 14.0 | 0.00 | 0.01 | 0.00 | 47 | 986.5 |
| 20260509142917 | 59 | 225 | 8.0 | 11.0 | 0.00 | 0.01 | 0.00 | 46 | 986.6 |
| 20260509142419 | 59 | 248 | 12.0 | 15.0 | 0.00 | 0.01 | 0.00 | 45 | 986.3 |
| 20260509141916 | 59 | 248 | 11.0 | 21.0 | 0.00 | 0.01 | 0.00 | 46 | 986.3 |
| 20260509141416 | 59 | 248 | 7.0 | 10.0 | 0.00 | 0.01 | 0.00 | 46 | 986.3 |
| 20260509140958 | 59 | 225 | 12.0 | 15.0 | 0.00 | 0.01 | 0.00 | 45 | 986.3 |
| 20260509140419 | 59 | 225 | 11.0 | 13.0 | 0.00 | 0.01 | 0.00 | 44 | 986.4 |
| 20260509135918 | 59 | 248 | 9.0 | 11.0 | 0.00 | 0.01 | 0.00 | 44 | 986.4 |
| 20260509135419 | 59 | 225 | 9.0 | 12.0 | 0.00 | 0.01 | 0.00 | 44 | 986.5 |
| 20260509134918 | 58 | 225 | 9.0 | 12.0 | 0.00 | 0.01 | 0.00 | 45 | 986.4 |
| 20260509134459 | 58 | 225 | 10.0 | 12.0 | 0.00 | 0.01 | 0.00 | 45 | 986.4 |
| 20260509133918 | 58 | 225 | 11.0 | 13.0 | 0.00 | 0.01 | 0.00 | 45 | 986.4 |
| 20260509133439 | 58 | 225 | 10.0 | 13.0 | 0.00 | 0.01 | 0.00 | 45 | 986.5 |
| 20260509132919 | 57 | 225 | 12.0 | 17.0 | 0.00 | 0.01 | 0.00 | 46 | 986.5 |
| 20260509132418 | 57 | 225 | 9.0 | 12.0 | 0.00 | 0.01 | 0.00 | 46 | 986.5 |
| 20260509131918 | 57 | 225 | 10.0 | 13.0 | 0.00 | 0.01 | 0.00 | 46 | 986.5 |
| 20260509131420 | 56 | 225 | 8.0 | 11.0 | 0.00 | 0.01 | 0.00 | 46 | 986.6 |
| 20260509130918 | 56 | 225 | 9.0 | 12.0 | 0.00 | 0.01 | 0.00 | 47 | 986.5 |
| 20260509130421 | 56 | 248 | 6.0 | 10.0 | 0.00 | 0.01 | 0.00 | 48 | 986.6 |
| 20260509125938 | 56 | 225 | 10.0 | 11.0 | 0.00 | 0.01 | 0.00 | 48 | 986.7 |
| 20260509125419 | 56 | 225 | 11.0 | 14.0 | 0.00 | 0.01 | 0.00 | 49 | 986.7 |
| 20260509124918 | 56 | 225 | 9.0 | 15.0 | 0.00 | 0.01 | 0.00 | 49 | 986.7 |
| 20260509124419 | 56 | 225 | 7.0 | 11.0 | 0.00 | 0.01 | 0.00 | 50 | 986.8 |
| 20260509123920 | 56 | 225 | 10.0 | 13.0 | 0.00 | 0.01 | 0.00 | 50 | 986.8 |
| 20260509123418 | 55 | 225 | 7.0 | 9.0 | 0.00 | 0.01 | 0.00 | 50 | 986.8 |
| 20260509122939 | 55 | 203 | 6.0 | 7.0 | 0.00 | 0.01 | 0.00 | 51 | 986.8 |
| 20260509122418 | 55 | 203 | 6.0 | 7.0 | 0.00 | 0.01 | 0.00 | 51 | 986.8 |
| 20260509121918 | 55 | 203 | 6.0 | 9.0 | 0.00 | 0.01 | 0.00 | 51 | 986.8 |
| 20260509121439 | 54 | 203 | 5.0 | 7.0 | 0.00 | 0.01 | 0.00 | 51 | 986.8 |
| 20260509120919 | 54 | 203 | 6.0 | 10.0 | 0.00 | 0.01 | 0.00 | 51 | 986.8 |
| 20260509120418 | 54 | 203 | 7.0 | 10.0 | 0.00 | 0.01 | 0.00 | 50 | 986.9 |
| 20260509115939 | 54 | 203 | 5.0 | 8.0 | 0.00 | 0.01 | 0.00 | 51 | 986.9 |
| 20260509115459 | 54 | 203 | 6.0 | 9.0 | 0.00 | 0.01 | 0.00 | 51 | 986.8 |
| 20260509115038 | 54 | 203 | 6.0 | 9.0 | 0.00 | 0.01 | 0.00 | 51 | 986.8 |
| 20260509114418 | 54 | 203 | 5.0 | 7.0 | 0.00 | 0.01 | 0.00 | 51 | 986.9 |
| 20260509113918 | 54 | 225 | 6.0 | 8.0 | 0.00 | 0.01 | 0.00 | 51 | 986.8 |
| 20260509113418 | 54 | 203 | 5.0 | 8.0 | 0.00 | 0.01 | 0.00 | 51 | 986.8 |
| 20260509112918 | 54 | 203 | 3.0 | 7.0 | 0.00 | 0.01 | 0.00 | 51 | 986.9 |
| 20260509112418 | 54 | 203 | 4.0 | 6.0 | 0.00 | 0.01 | 0.00 | 51 | 987.0 |
| 20260509111918 | 54 | 203 | 7.0 | 9.0 | 0.00 | 0.01 | 0.00 | 50 | 987.0 |
| 20260509111418 | 54 | 225 | 5.0 | 7.0 | 0.00 | 0.01 | 0.00 | 50 | 986.9 |
| 20260509110938 | 54 | 225 | 4.0 | 9.0 | 0.00 | 0.01 | 0.00 | 50 | 986.9 |
| 20260509110418 | 54 | 203 | 6.0 | 8.0 | 0.00 | 0.01 | 0.00 | 50 | 986.8 |
| 20260509105938 | 54 | 203 | 3.0 | 6.0 | 0.00 | 0.01 | 0.00 | 50 | 986.8 |
| 20260509105418 | 54 | 180 | 3.0 | 4.0 | 0.00 | 0.01 | 0.00 | 50 | 986.7 |
| 20260509104918 | 54 | 203 | 2.0 | 4.0 | 0.00 | 0.01 | 0.00 | 50 | 986.7 |
| 20260509104418 | 54 | 225 | 4.0 | 6.0 | 0.00 | 0.01 | 0.00 | 50 | 986.6 |
| 20260509103918 | 54 | 225 | 3.0 | 5.0 | 0.00 | 0.01 | 0.00 | 50 | 986.6 |
| 20260509103438 | 54 | 203 | 5.0 | 6.0 | 0.00 | 0.01 | 0.00 | 50 | 986.6 |
| 20260509102918 | 54 | 203 | 6.0 | 7.0 | 0.00 | 0.01 | 0.00 | 50 | 986.6 |
| 20260509102418 | 54 | 203 | 5.0 | 7.0 | 0.00 | 0.01 | 0.00 | 50 | 986.6 |
| 20260509101918 | 54 | 203 | 2.0 | 3.0 | 0.00 | 0.01 | 0.00 | 50 | 986.5 |
| 20260509101418 | 54 | 203 | 5.0 | 6.0 | 0.00 | 0.01 | 0.00 | 50 | 986.6 |
| 20260509100918 | 54 | 203 | 2.0 | 3.0 | 0.00 | 0.01 | 0.00 | 50 | 986.5 |
| 20260509100418 | 54 | 203 | 4.0 | 6.0 | 0.00 | 0.01 | 0.00 | 50 | 986.7 |
| 20260509095918 | 54 | 203 | 4.0 | 7.0 | 0.00 | 0.01 | 0.00 | 50 | 986.6 |
| 20260509095417 | 54 | 203 | 3.0 | 5.0 | 0.00 | 0.01 | 0.00 | 50 | 986.6 |
| 20260509094918 | 54 | 203 | 3.0 | 4.0 | 0.00 | 0.01 | 0.00 | 50 | 986.6 |
| 20260509094418 | 54 | 203 | 2.0 | 3.0 | 0.00 | 0.01 | 0.00 | 50 | 986.6 |
| 20260509093938 | 54 | 180 | 4.0 | 6.0 | 0.00 | 0.01 | 0.00 | 50 | 986.7 |
| 20260509093419 | 54 | 225 | 4.0 | 6.0 | 0.00 | 0.01 | 0.00 | 50 | 986.8 |
| 20260509092918 | 54 | 203 | 6.0 | 7.0 | 0.00 | 0.01 | 0.00 | 50 | 986.8 |
| 20260509092438 | 54 | 225 | 5.0 | 7.0 | 0.00 | 0.01 | 0.00 | 50 | 986.9 |
| 20260509091938 | 54 | 225 | 5.0 | 6.0 | 0.00 | 0.01 | 0.00 | 50 | 986.9 |
| 20260509091422 | 54 | 225 | 5.0 | 6.0 | 0.00 | 0.01 | 0.00 | 50 | 986.9 |
| 20260509090918 | 54 | 225 | 5.0 | 6.0 | 0.00 | 0.01 | 0.00 | 50 | 986.9 |
| 20260509090417 | 55 | 225 | 6.0 | 7.0 | 0.00 | 0.01 | 0.00 | 50 | 986.9 |
| 20260509085918 | 55 | 225 | 7.0 | 8.0 | 0.00 | 0.01 | 0.00 | 50 | 986.9 |
| 20260509085421 | 55 | 225 | 7.0 | 8.0 | 0.00 | 0.01 | 0.00 | 50 | 986.9 |
| 20260509084917 | 55 | 225 | 7.0 | 8.0 | 0.00 | 0.01 | 0.00 | 50 | 987.0 |
| 20260509084421 | 55 | 203 | 6.0 | 8.0 | 0.00 | 0.01 | 0.00 | 50 | 987.0 |
| 20260509083917 | 55 | 203 | 7.0 | 8.0 | 0.00 | 0.01 | 0.00 | 50 | 987.0 |
| 20260509083420 | 55 | 225 | 7.0 | 10.0 | 0.00 | 0.01 | 0.00 | 50 | 987.1 |
| 20260509082918 | 55 | 203 | 6.0 | 7.0 | 0.00 | 0.01 | 0.00 | 50 | 987.2 |
| 20260509082418 | 55 | 225 | 7.0 | 9.0 | 0.00 | 0.01 | 0.00 | 50 | 987.1 |
| 20260509081920 | 55 | 203 | 6.0 | 8.0 | 0.00 | 0.01 | 0.00 | 50 | 987.1 |
| 20260509081418 | 55 | 225 | 7.0 | 8.0 | 0.00 | 0.01 | 0.00 | 50 | 987.1 |